Time;durP1;ratioP1;P1;durP2;ratioP2;P2;SDS_P1;SDS_P2;PMS_P1;PMS_P2;Temp;Humidity;BMP_temperature;BMP_pressure;BME280_temperature;BME280_humidity;BME280_pressure;Samples;Min_cycle;Max_cycle;Signal;HPM_P1;HPM_P2
2022/06/30 00:01:34;;;;;;;0.75;0.73;;;20.40;62.40;;;;;;6336624;22;20005;-72
2022/06/30 00:04:01;;;;;;;0.73;0.73;;;20.50;62.50;;;;;;6308954;22;19998;-72
2022/06/30 00:06:27;;;;;;;1.00;0.90;;;20.50;62.50;;;;;;6336400;22;19995;-72
2022/06/30 00:08:52;;;;;;;1.00;0.90;;;20.50;62.50;;;;;;6336863;22;19995;-72
2022/06/30 00:11:20;;;;;;;0.85;0.85;;;20.50;62.60;;;;;;6336443;22;20090;-72
2022/06/30 00:13:46;;;;;;;0.63;0.63;;;20.40;62.60;;;;;;6308372;22;19995;-72
2022/06/30 00:16:12;;;;;;;0.70;0.70;;;20.50;62.70;;;;;;6336461;22;20014;-73
2022/06/30 00:18:38;;;;;;;0.95;0.80;;;20.40;62.70;;;;;;6336308;22;19999;-72
2022/06/30 00:21:05;;;;;;;0.70;0.70;;;20.40;62.80;;;;;;6336491;22;20006;-73
2022/06/30 00:23:31;;;;;;;0.80;0.80;;;20.40;62.80;;;;;;6282326;22;20011;-73
2022/06/30 00:25:57;;;;;;;0.80;0.80;;;20.40;62.80;;;;;;6308319;22;20005;-72
2022/06/30 00:28:23;;;;;;;1.00;1.00;;;20.40;62.80;;;;;;6336262;22;20137;-72
2022/06/30 00:30:50;;;;;;;0.70;0.70;;;20.40;63.00;;;;;;6309017;22;20036;-72
2022/06/30 00:33:16;;;;;;;0.93;0.75;;;20.40;63.10;;;;;;6336907;22;20010;-72
2022/06/30 00:35:43;;;;;;;0.95;0.90;;;20.30;63.20;;;;;;6336555;22;20021;-72
2022/06/30 00:38:09;;;;;;;0.80;0.80;;;20.30;63.40;;;;;;6336477;22;20017;-72
2022/06/30 00:40:38;;;;;;;0.70;0.70;;;20.20;63.60;;;;;;6336416;22;20010;-72
2022/06/30 00:43:05;;;;;;;0.90;0.90;;;20.10;63.70;;;;;;6336912;22;20480;-72
2022/06/30 00:45:31;;;;;;;0.70;0.70;;;20.10;64.60;;;;;;6336025;22;20025;-72
2022/06/30 00:47:57;;;;;;;0.70;0.70;;;20.10;64.10;;;;;;6336214;22;20002;-72
2022/06/30 00:50:23;;;;;;;0.70;0.70;;;20.10;64.30;;;;;;6336629;22;20007;-72
2022/06/30 00:52:51;;;;;;;1.08;0.90;;;20.00;64.40;;;;;;6336227;22;20007;-72
2022/06/30 00:55:18;;;;;;;1.38;1.00;;;19.90;64.50;;;;;;6307950;22;20026;-72
2022/06/30 00:57:45;;;;;;;0.70;0.70;;;19.90;64.60;;;;;;6336257;22;20048;-72
2022/06/30 01:00:12;;;;;;;1.13;1.02;;;19.90;64.80;;;;;;6306688;22;20015;-72
2022/06/30 01:02:39;;;;;;;0.95;0.93;;;19.80;64.90;;;;;;6336181;22;20318;-73
2022/06/30 01:05:06;;;;;;;0.98;0.95;;;19.80;65.10;;;;;;6336439;22;20014;-73
2022/06/30 01:07:33;;;;;;;0.93;0.82;;;19.70;65.20;;;;;;6336240;22;20081;-72
2022/06/30 01:12:46;;;;;;;1.02;0.90;;;19.70;65.40;;;;;;6336442;22;20438;-73
2022/06/30 01:15:16;;;;;;;1.17;1.00;;;19.60;65.50;;;;;;6308836;22;20049;-72
2022/06/30 01:17:43;;;;;;;0.87;0.87;;;19.60;65.60;;;;;;6336230;22;20075;-73
2022/06/30 01:20:10;;;;;;;1.10;1.00;;;19.50;65.70;;;;;;6336432;22;20083;-73
2022/06/30 01:22:37;;;;;;;1.83;1.10;;;19.50;65.80;;;;;;6336888;22;20033;-73
2022/06/30 01:25:04;;;;;;;1.00;0.90;;;19.40;65.80;;;;;;6336021;22;20003;-73
2022/06/30 01:27:30;;;;;;;1.23;1.00;;;19.50;66.00;;;;;;6336461;22;20107;-72
2022/06/30 01:29:58;;;;;;;1.25;1.15;;;19.40;66.10;;;;;;6336031;22;20011;-72
2022/06/30 01:32:25;;;;;;;1.10;1.00;;;19.40;66.20;;;;;;6307928;22;20011;-72
2022/06/30 01:34:52;;;;;;;1.20;1.10;;;19.30;66.30;;;;;;6335909;22;20014;-73
2022/06/30 01:37:17;;;;;;;1.00;0.90;;;19.30;66.40;;;;;;6336101;22;20454;-73
2022/06/30 01:39:43;;;;;;;1.00;0.90;;;19.30;66.60;;;;;;6336281;22;20081;-73
2022/06/30 01:42:09;;;;;;;1.30;1.20;;;19.20;66.60;;;;;;6336550;22;20426;-72
2022/06/30 01:44:36;;;;;;;1.10;1.00;;;19.20;66.70;;;;;;6336160;22;19999;-73
2022/06/30 01:47:03;;;;;;;1.10;1.00;;;19.20;66.70;;;;;;6336476;22;20446;-73
2022/06/30 01:49:28;;;;;;;1.20;1.10;;;19.20;66.80;;;;;;6306405;22;20003;-73
2022/06/30 01:51:54;;;;;;;1.75;1.17;;;19.10;66.80;;;;;;6335978;22;20069;-73
2022/06/30 01:54:22;;;;;;;1.10;1.00;;;19.10;66.90;;;;;;6335977;22;19998;-73
2022/06/30 01:56:48;;;;;;;1.15;1.05;;;19.10;67.00;;;;;;6336209;22;19999;-73
2022/06/30 01:59:14;;;;;;;1.25;1.15;;;19.10;67.00;;;;;;6336410;22;20399;-72
2022/06/30 02:01:40;;;;;;;0.90;0.90;;;19.10;67.00;;;;;;6336257;22;20007;-72
2022/06/30 02:06:47;;;;;;;2.10;1.30;;;19.00;67.10;;;;;;6334296;22;20342;-72
2022/06/30 02:09:14;;;;;;;1.58;1.30;;;19.00;67.20;;;;;;6336424;22;20441;-73
2022/06/30 02:11:39;;;;;;;1.20;1.10;;;19.00;67.30;;;;;;6336486;22;20135;-74
2022/06/30 02:14:06;;;;;;;1.30;1.10;;;19.00;67.30;;;;;;6335932;22;19998;-73
2022/06/30 02:16:31;;;;;;;1.42;1.10;;;19.00;67.20;;;;;;6336207;22;19995;-73
2022/06/30 02:18:57;;;;;;;1.20;1.10;;;19.10;67.30;;;;;;6307827;22;20011;-72
2022/06/30 02:21:23;;;;;;;2.50;1.35;;;19.10;67.20;;;;;;6335677;22;20002;-72
2022/06/30 02:23:51;;;;;;;2.20;1.20;;;19.10;67.20;;;;;;6308089;22;20002;-73
2022/06/30 02:26:19;;;;;;;1.23;1.00;;;19.10;67.30;;;;;;6336441;22;19994;-72
2022/06/30 02:28:44;;;;;;;1.08;1.00;;;19.00;67.30;;;;;;6335640;22;20005;-73
2022/06/30 02:31:12;;;;;;;1.30;1.10;;;19.00;67.40;;;;;;6308053;22;20094;-72
2022/06/30 02:33:39;;;;;;;1.60;1.27;;;19.00;67.60;;;;;;6308346;22;20011;-72
2022/06/30 02:36:06;;;;;;;1.90;1.25;;;19.00;67.70;;;;;;6336068;22;20005;-73
2022/06/30 02:38:32;;;;;;;1.77;1.30;;;18.90;67.80;;;;;;6336046;22;20422;-72
2022/06/30 02:40:58;;;;;;;1.13;1.02;;;18.90;67.80;;;;;;6333205;22;20516;-73
2022/06/30 02:43:24;;;;;;;1.10;1.00;;;18.90;67.90;;;;;;6336369;22;20007;-73
2022/06/30 02:45:50;;;;;;;1.58;0.90;;;18.90;68.00;;;;;;6336057;22;20056;-73
2022/06/30 02:48:18;;;;;;;1.45;1.33;;;18.80;68.10;;;;;;6336416;22;20381;-72
2022/06/30 02:50:45;;;;;;;1.23;1.10;;;18.80;68.20;;;;;;6335938;22;20011;-72
2022/06/30 02:53:11;;;;;;;1.23;1.13;;;18.80;68.40;;;;;;6336389;22;20085;-72
2022/06/30 02:55:38;;;;;;;1.45;1.30;;;18.80;68.50;;;;;;6335861;22;20026;-72
2022/06/30 02:58:04;;;;;;;1.83;1.00;;;18.70;68.60;;;;;;6335866;22;20414;-72
2022/06/30 03:00:30;;;;;;;1.20;1.10;;;18.60;68.60;;;;;;6335546;22;19999;-72
2022/06/30 03:02:57;;;;;;;1.65;1.15;;;18.70;68.80;;;;;;6336179;22;20022;-72
2022/06/30 03:05:23;;;;;;;1.20;1.10;;;18.60;68.90;;;;;;6336075;22;19998;-72
2022/06/30 03:07:49;;;;;;;1.48;1.10;;;18.60;68.90;;;;;;6335524;22;20369;-73
2022/06/30 03:10:16;;;;;;;1.80;1.38;;;18.60;69.00;;;;;;6335855;22;20018;-73
2022/06/30 03:12:42;;;;;;;1.23;1.00;;;18.50;69.00;;;;;;6335657;22;20063;-72
2022/06/30 03:15:08;;;;;;;1.52;1.20;;;18.50;69.20;;;;;;6335578;22;20002;-72
2022/06/30 03:17:34;;;;;;;2.20;1.40;;;18.50;69.20;;;;;;6335490;22;20018;-72
2022/06/30 03:20:00;;;;;;;1.35;1.25;;;18.60;69.30;;;;;;6335634;22;20447;-72
2022/06/30 03:22:26;;;;;;;1.33;1.20;;;18.40;69.40;;;;;;6305669;22;20427;-72
2022/06/30 03:24:52;;;;;;;1.75;1.27;;;18.40;69.40;;;;;;6335842;22;20435;-72
2022/06/30 03:27:18;;;;;;;1.23;1.10;;;18.40;69.50;;;;;;6335090;22;20077;-72
2022/06/30 03:29:44;;;;;;;1.30;1.20;;;18.40;69.50;;;;;;6335624;22;20011;-72
2022/06/30 03:32:09;;;;;;;1.92;1.13;;;18.40;69.60;;;;;;6335531;22;20005;-73
2022/06/30 03:34:35;;;;;;;1.60;1.30;;;18.50;69.70;;;;;;6306775;22;20082;-72
2022/06/30 03:37:01;;;;;;;1.48;1.20;;;18.40;69.60;;;;;;6335400;22;20109;-72
2022/06/30 03:39:27;;;;;;;1.70;1.25;;;18.40;69.70;;;;;;6335504;22;20503;-72
2022/06/30 03:41:55;;;;;;;1.38;1.20;;;18.40;69.70;;;;;;6335351;22;20003;-72
2022/06/30 03:44:21;;;;;;;2.17;1.17;;;18.40;69.80;;;;;;6307643;22;20056;-72
2022/06/30 03:46:46;;;;;;;1.27;1.00;;;18.40;69.80;;;;;;6308192;22;20357;-73
2022/06/30 03:49:12;;;;;;;2.00;1.20;;;18.40;69.90;;;;;;6335327;22;20011;-73
2022/06/30 03:51:38;;;;;;;2.15;1.35;;;18.40;70.60;;;;;;6335134;22;20010;-73
2022/06/30 03:54:03;;;;;;;1.50;1.20;;;18.40;70.10;;;;;;6335633;22;20011;-73
2022/06/30 03:56:29;;;;;;;1.83;1.20;;;18.40;70.20;;;;;;6335957;22;20002;-73
2022/06/30 03:58:55;;;;;;;1.30;1.10;;;18.30;70.20;;;;;;6307534;22;20003;-73
2022/06/30 04:01:21;;;;;;;1.88;1.38;;;18.40;70.30;;;;;;6335042;22;20094;-73
2022/06/30 04:03:47;;;;;;;1.77;1.40;;;18.40;70.40;;;;;;6335900;22;20011;-73
2022/06/30 04:06:12;;;;;;;1.58;1.38;;;18.40;70.40;;;;;;6335809;22;19999;-73
2022/06/30 04:08:38;;;;;;;1.83;1.48;;;18.40;70.50;;;;;;6307788;22;20007;-73
2022/06/30 04:11:04;;;;;;;1.35;1.02;;;18.30;70.40;;;;;;6335671;22;20077;-73
2022/06/30 04:13:30;;;;;;;1.80;1.30;;;18.40;70.50;;;;;;6307833;22;19999;-74
2022/06/30 04:15:56;;;;;;;1.95;1.30;;;18.40;70.50;;;;;;6336095;22;20026;-73
2022/06/30 04:18:22;;;;;;;2.53;1.55;;;18.40;70.50;;;;;;6334862;22;20034;-73
2022/06/30 04:20:48;;;;;;;1.65;1.23;;;18.40;70.50;;;;;;6307523;22;20312;-73
2022/06/30 04:23:13;;;;;;;1.20;1.10;;;18.50;70.50;;;;;;6336187;22;20003;-73
2022/06/30 04:25:39;;;;;;;1.90;1.40;;;18.50;71.20;;;;;;6335196;22;20033;-73
2022/06/30 04:28:06;;;;;;;2.17;1.30;;;18.60;70.50;;;;;;6335305;22;20007;-73
2022/06/30 04:33:16;;;;;;;1.15;1.05;;;18.60;70.50;;;;;;6335237;22;20007;-73
2022/06/30 04:35:42;;;;;;;3.20;1.70;;;18.60;70.40;;;;;;6281670;22;20006;-71
2022/06/30 04:38:08;;;;;;;1.20;1.10;;;18.70;70.50;;;;;;6335020;22;20006;-73
2022/06/30 04:43:16;;;;;;;1.35;1.23;;;18.70;70.50;;;;;;6335104;22;20384;-71
2022/06/30 04:45:42;;;;;;;1.30;1.20;;;18.70;70.40;;;;;;6335294;22;20006;-71
2022/06/30 04:48:08;;;;;;;1.48;1.33;;;18.80;70.50;;;;;;6307681;22;20038;-71
2022/06/30 04:50:34;;;;;;;1.45;1.20;;;18.80;70.60;;;;;;6336408;22;20569;-74
2022/06/30 04:53:00;;;;;;;1.35;1.25;;;18.80;70.50;;;;;;6308973;22;20045;-74
2022/06/30 04:55:26;;;;;;;1.20;1.10;;;18.90;70.50;;;;;;6337121;22;20011;-73
2022/06/30 04:57:51;;;;;;;1.20;1.10;;;18.90;70.50;;;;;;6307966;22;20003;-71
2022/06/30 05:00:17;;;;;;;1.30;1.10;;;19.00;70.60;;;;;;6309063;22;20007;-71
2022/06/30 05:02:43;;;;;;;1.85;1.45;;;19.00;70.50;;;;;;6336401;22;20369;-72
2022/06/30 05:05:09;;;;;;;1.33;1.20;;;19.00;70.50;;;;;;6336362;22;20304;-71
2022/06/30 05:07:35;;;;;;;1.20;1.10;;;19.10;70.50;;;;;;6336520;22;20010;-71
2022/06/30 05:10:02;;;;;;;1.30;1.20;;;19.20;70.40;;;;;;6308972;22;20343;-71
2022/06/30 05:12:28;;;;;;;1.88;1.30;;;19.30;70.40;;;;;;6336640;22;20503;-72
2022/06/30 05:14:54;;;;;;;2.10;1.45;;;19.30;70.20;;;;;;6336490;22;20007;-73
2022/06/30 05:17:20;;;;;;;1.30;1.20;;;19.40;70.20;;;;;;6337259;22;19995;-73
2022/06/30 05:19:45;;;;;;;1.33;1.15;;;19.50;70.20;;;;;;6336123;22;20003;-73
2022/06/30 05:22:11;;;;;;;2.08;1.40;;;19.60;70.00;;;;;;6307950;22;20007;-73
2022/06/30 05:27:15;;;;;;;1.58;1.30;;;19.80;69.90;;;;;;6335466;22;20014;-73
2022/06/30 05:29:40;;;;;;;2.17;1.38;;;19.80;69.80;;;;;;6336170;22;20029;-73
2022/06/30 05:32:07;;;;;;;1.33;1.23;;;19.90;69.70;;;;;;6336906;22;20068;-73
2022/06/30 05:34:34;;;;;;;1.63;1.40;;;20.00;69.70;;;;;;6336875;22;20077;-73
2022/06/30 05:37:00;;;;;;;1.63;1.30;;;20.10;69.70;;;;;;6307901;22;20006;-74
2022/06/30 05:39:25;;;;;;;1.58;1.30;;;20.20;69.60;;;;;;6337064;22;20005;-73
2022/06/30 05:41:51;;;;;;;1.77;1.48;;;20.30;69.50;;;;;;6336582;22;20007;-73
2022/06/30 05:44:17;;;;;;;1.52;1.40;;;20.40;69.50;;;;;;6309317;22;20013;-73
2022/06/30 05:46:43;;;;;;;1.60;1.50;;;20.50;69.30;;;;;;6256513;22;20098;-72
2022/06/30 05:49:10;;;;;;;2.05;1.45;;;20.60;69.30;;;;;;6309151;22;20427;-72
2022/06/30 05:51:35;;;;;;;1.70;1.60;;;20.70;69.20;;;;;;6306675;22;20007;-73
2022/06/30 05:54:02;;;;;;;1.85;1.38;;;20.70;69.80;;;;;;6336038;22;20006;-73
2022/06/30 05:56:27;;;;;;;1.83;1.45;;;20.90;69.10;;;;;;6336456;22;20010;-72
2022/06/30 05:58:53;;;;;;;2.08;1.80;;;20.90;69.10;;;;;;6336077;22;19999;-72
2022/06/30 06:01:19;;;;;;;1.90;1.60;;;20.90;69.10;;;;;;6336391;22;20434;-73
2022/06/30 06:03:45;;;;;;;2.17;1.77;;;20.90;69.20;;;;;;6337163;22;20082;-72
2022/06/30 06:06:10;;;;;;;1.80;1.35;;;21.00;69.30;;;;;;6337275;22;20435;-72
2022/06/30 06:08:36;;;;;;;2.17;1.75;;;21.00;69.20;;;;;;6308831;22;20002;-72
2022/06/30 06:11:02;;;;;;;2.10;1.65;;;21.20;69.20;;;;;;6336208;22;20138;-73
2022/06/30 06:13:28;;;;;;;2.40;1.90;;;21.10;69.20;;;;;;6282964;22;20003;-71
2022/06/30 06:15:54;;;;;;;2.53;2.10;;;21.10;69.30;;;;;;6336025;22;20438;-72
2022/06/30 06:18:19;;;;;;;1.80;1.60;;;21.10;69.30;;;;;;6336227;22;20011;-72
2022/06/30 06:20:45;;;;;;;2.60;2.00;;;21.20;69.40;;;;;;6335977;22;20007;-71
2022/06/30 06:23:11;;;;;;;2.45;1.80;;;21.20;69.30;;;;;;6335979;22;20445;-72
2022/06/30 06:25:37;;;;;;;2.50;1.70;;;21.20;69.40;;;;;;6336379;22;20060;-71
2022/06/30 06:30:44;;;;;;;1.83;1.63;;;21.30;69.40;;;;;;6335830;22;20018;-72
2022/06/30 06:33:10;;;;;;;1.90;1.60;;;21.50;69.40;;;;;;6336464;22;20003;-72
2022/06/30 06:35:36;;;;;;;1.73;1.42;;;21.50;69.10;;;;;;6336253;22;20079;-72
2022/06/30 06:38:02;;;;;;;3.13;1.98;;;21.60;69.00;;;;;;6336552;22;20108;-72
2022/06/30 06:40:28;;;;;;;2.47;1.77;;;21.80;68.90;;;;;;6309137;22;20006;-71
2022/06/30 06:42:54;;;;;;;1.65;1.45;;;21.90;68.70;;;;;;6308466;22;20034;-72
2022/06/30 06:45:20;;;;;;;1.50;1.30;;;22.00;68.60;;;;;;6282722;22;20011;-73
2022/06/30 06:47:46;;;;;;;1.60;1.45;;;22.10;68.40;;;;;;6336288;22;19999;-71
2022/06/30 06:50:12;;;;;;;2.65;1.50;;;22.20;68.20;;;;;;6335963;22;20007;-72
2022/06/30 06:52:38;;;;;;;3.42;2.30;;;22.30;68.10;;;;;;6336343;22;20014;-72
2022/06/30 06:55:04;;;;;;;3.53;2.17;;;22.40;67.90;;;;;;6335955;22;20003;-72
2022/06/30 06:57:38;;;;;;;1.88;1.67;;;22.40;67.70;;;;;;6282571;22;19994;-72
2022/06/30 07:00:06;;;;;;;1.90;1.50;;;22.50;67.60;;;;;;6307530;22;20042;-72
2022/06/30 07:02:32;;;;;;;1.55;1.45;;;22.50;67.50;;;;;;6335942;22;20025;-72
2022/06/30 07:04:59;;;;;;;1.70;1.58;;;22.70;67.50;;;;;;6305720;22;20003;-72
2022/06/30 07:07:25;;;;;;;1.63;1.52;;;22.80;67.30;;;;;;6335806;22;20510;-72
2022/06/30 07:09:50;;;;;;;2.60;1.80;;;22.90;67.10;;;;;;6335369;22;20006;-72
2022/06/30 07:12:17;;;;;;;2.30;1.63;;;23.10;67.00;;;;;;6336402;22;20437;-72
2022/06/30 07:14:43;;;;;;;2.25;1.60;;;23.10;66.80;;;;;;6335887;22;20003;-72
2022/06/30 07:17:08;;;;;;;2.13;1.60;;;23.20;66.80;;;;;;6308160;22;20031;-72
2022/06/30 07:19:34;;;;;;;1.83;1.65;;;23.40;66.70;;;;;;6335931;22;19999;-72
2022/06/30 07:22:00;;;;;;;1.83;1.50;;;23.60;66.70;;;;;;6336038;22;20072;-72
2022/06/30 07:24:26;;;;;;;3.22;2.10;;;23.70;66.70;;;;;;6336033;22;20454;-73
2022/06/30 07:26:51;;;;;;;2.20;1.98;;;23.80;66.50;;;;;;6335948;22;20042;-72
2022/06/30 07:29:17;;;;;;;2.97;2.28;;;23.90;66.40;;;;;;6306285;22;20007;-72
2022/06/30 07:31:43;;;;;;;3.53;2.50;;;24.00;66.40;;;;;;6335660;22;20006;-73
2022/06/30 07:34:09;;;;;;;1.85;1.65;;;24.10;66.40;;;;;;6307907;22;20002;-72
2022/06/30 07:36:36;;;;;;;2.15;1.88;;;24.20;66.60;;;;;;6308087;22;20002;-73
2022/06/30 07:39:03;;;;;;;2.53;2.13;;;24.30;66.40;;;;;;6333053;22;20031;-72
2022/06/30 07:41:29;;;;;;;2.83;2.28;;;24.40;66.80;;;;;;6307621;22;20014;-72
2022/06/30 07:43:55;;;;;;;2.58;1.90;;;24.60;66.30;;;;;;6335325;22;20431;-72
2022/06/30 07:46:20;;;;;;;4.10;2.72;;;24.70;66.20;;;;;;6306862;22;20000;-73
2022/06/30 07:48:47;;;;;;;2.47;2.00;;;24.80;66.10;;;;;;6335929;22;20514;-73
2022/06/30 07:51:15;;;;;;;3.00;1.73;;;24.80;66.00;;;;;;6335850;22;20019;-72
2022/06/30 07:53:41;;;;;;;3.58;2.13;;;25.00;66.00;;;;;;6335261;22;20022;-73
2022/06/30 07:56:07;;;;;;;1.65;1.55;;;25.10;66.00;;;;;;6335615;22;20002;-72
2022/06/30 07:58:33;;;;;;;2.67;2.08;;;25.10;65.90;;;;;;6302183;22;19999;-72
2022/06/30 08:01:00;;;;;;;3.60;2.53;;;25.10;66.00;;;;;;6335813;22;20098;-72
2022/06/30 08:03:26;;;;;;;3.25;2.38;;;25.20;66.10;;;;;;6336048;22;19999;-72
2022/06/30 08:05:52;;;;;;;3.08;2.08;;;25.30;66.20;;;;;;6308333;22;20025;-72
2022/06/30 08:08:18;;;;;;;2.50;2.05;;;25.30;66.10;;;;;;6336212;22;19999;-72
2022/06/30 08:10:44;;;;;;;3.63;2.70;;;25.40;66.20;;;;;;6307552;22;20853;-73
2022/06/30 08:13:10;;;;;;;3.75;2.17;;;25.40;66.20;;;;;;6307456;22;20312;-73
2022/06/30 08:15:36;;;;;;;2.97;2.30;;;25.40;66.30;;;;;;6335476;22;19999;-72
2022/06/30 08:18:03;;;;;;;2.80;2.20;;;25.50;66.30;;;;;;6307604;22;20010;-72
2022/06/30 08:20:29;;;;;;;2.80;1.98;;;25.50;66.20;;;;;;6308707;22;20399;-72
2022/06/30 08:22:55;;;;;;;2.17;1.73;;;25.60;66.30;;;;;;6309099;22;20015;-72
2022/06/30 08:25:21;;;;;;;2.20;1.92;;;25.70;66.00;;;;;;6337527;22;20322;-72
2022/06/30 08:27:47;;;;;;;1.83;1.65;;;25.80;66.60;;;;;;6336652;22;20085;-73
2022/06/30 08:30:12;;;;;;;1.70;1.58;;;25.90;65.90;;;;;;6309159;22;20097;-72
2022/06/30 08:32:38;;;;;;;2.05;1.60;;;25.90;65.80;;;;;;6336537;22;19999;-72
2022/06/30 08:35:04;;;;;;;2.28;1.60;;;25.90;65.70;;;;;;6336823;22;19994;-72
2022/06/30 08:37:30;;;;;;;2.13;1.60;;;26.00;65.80;;;;;;6336481;22;20437;-72
2022/06/30 08:42:41;;;;;;;2.67;1.40;;;26.20;65.50;;;;;;6336432;22;20007;-72
2022/06/30 08:45:24;;;;;;;1.42;1.33;;;26.30;65.50;;;;;;6333798;22;20006;-72
2022/06/30 08:47:50;;;;;;;1.40;1.30;;;26.30;65.60;;;;;;6336772;22;19999;-72
2022/06/30 08:50:17;;;;;;;2.95;1.98;;;26.30;65.60;;;;;;6308576;22;20049;-73
2022/06/30 08:52:50;;;;;;;1.92;1.73;;;26.30;65.60;;;;;;6336955;22;20005;-72
2022/06/30 08:55:16;;;;;;;1.75;1.42;;;26.30;65.40;;;;;;6336676;22;20029;-73
2022/06/30 08:57:43;;;;;;;1.30;1.05;;;26.40;65.50;;;;;;6307154;22;20304;-72
2022/06/30 09:00:11;;;;;;;1.45;1.13;;;26.50;65.20;;;;;;6308853;22;20013;-72
2022/06/30 09:02:37;;;;;;;2.85;1.50;;;26.40;65.30;;;;;;6336526;22;20010;-72
2022/06/30 09:05:03;;;;;;;1.20;1.10;;;26.50;64.90;;;;;;6336857;22;20003;-72
2022/06/30 09:07:30;;;;;;;2.22;1.13;;;26.50;64.90;;;;;;6336310;22;20006;-72
2022/06/30 09:09:56;;;;;;;1.15;1.05;;;26.50;64.60;;;;;;6309333;22;20006;-72
2022/06/30 09:12:21;;;;;;;1.08;0.88;;;26.50;64.50;;;;;;6309125;22;20010;-71
2022/06/30 09:14:48;;;;;;;0.70;0.70;;;26.60;64.50;;;;;;6336986;22;20042;-71
2022/06/30 09:17:20;;;;;;;0.90;0.90;;;26.60;64.50;;;;;;6336581;22;20415;-71
2022/06/30 09:19:59;;;;;;;0.60;0.60;;;26.60;64.30;;;;;;6308750;22;20098;-71
2022/06/30 09:22:29;;;;;;;2.42;1.00;;;26.70;64.10;;;;;;6336485;22;20006;-72
2022/06/30 09:25:04;;;;;;;1.42;1.00;;;26.70;64.10;;;;;;6336274;22;20007;-72
2022/06/30 09:27:33;;;;;;;1.17;0.90;;;26.70;64.40;;;;;;6336638;22;20030;-71
2022/06/30 09:30:04;;;;;;;1.10;1.00;;;26.50;64.50;;;;;;6336793;22;20014;-71
2022/06/30 09:32:42;;;;;;;1.00;0.85;;;26.50;64.50;;;;;;6335918;22;19995;-71
2022/06/30 09:35:10;;;;;;;1.48;0.90;;;26.60;64.50;;;;;;6336368;22;20327;-72
2022/06/30 09:37:37;;;;;;;1.08;0.98;;;26.60;64.20;;;;;;6336466;22;20056;-71
2022/06/30 09:40:04;;;;;;;0.70;0.70;;;26.70;64.00;;;;;;6336412;22;20389;-71
2022/06/30 09:42:44;;;;;;;0.63;0.63;;;26.80;63.70;;;;;;6336370;22;20081;-72
2022/06/30 09:45:12;;;;;;;1.38;0.98;;;26.80;63.40;;;;;;6336300;22;20076;-72
2022/06/30 09:47:52;;;;;;;1.27;0.80;;;26.70;63.50;;;;;;6335793;22;20011;-72
2022/06/30 09:50:18;;;;;;;1.02;0.80;;;26.60;63.50;;;;;;6336545;22;20431;-73
2022/06/30 09:52:44;;;;;;;0.70;0.70;;;26.60;63.60;;;;;;6336566;22;19999;-72
2022/06/30 09:55:10;;;;;;;0.50;0.50;;;26.80;63.40;;;;;;6336204;22;20014;-72
2022/06/30 09:57:38;;;;;;;0.85;0.70;;;26.90;63.20;;;;;;6308451;22;20071;-72
2022/06/30 10:00:11;;;;;;;1.30;0.82;;;26.90;62.90;;;;;;6308459;22;20003;-72
2022/06/30 10:02:40;;;;;;;0.70;0.70;;;26.90;62.60;;;;;;6335914;22;20033;-72
2022/06/30 10:05:07;;;;;;;1.67;0.82;;;26.90;62.50;;;;;;6257488;22;20368;-72
2022/06/30 10:07:34;;;;;;;0.70;0.70;;;26.90;62.40;;;;;;6335981;22;20034;-73
2022/06/30 10:10:06;;;;;;;1.00;0.82;;;27.10;62.20;;;;;;6336842;22;20422;-73
2022/06/30 10:12:32;;;;;;;0.93;0.68;;;27.10;62.00;;;;;;6309804;22;19995;-72
2022/06/30 10:14:58;;;;;;;1.02;0.80;;;27.10;61.80;;;;;;6282891;22;20015;-73
2022/06/30 10:17:28;;;;;;;2.22;0.90;;;27.10;61.80;;;;;;6307664;22;20030;-73
2022/06/30 10:19:54;;;;;;;1.40;0.70;;;27.10;61.90;;;;;;6336292;22;20006;-73
2022/06/30 10:22:25;;;;;;;1.63;1.00;;;27.20;61.70;;;;;;6336929;22;19998;-73
2022/06/30 10:24:52;;;;;;;1.65;1.02;;;27.20;61.70;;;;;;6306580;22;20003;-74
2022/06/30 10:27:24;;;;;;;1.50;0.90;;;27.30;61.70;;;;;;6336967;22;20056;-73
2022/06/30 10:29:56;;;;;;;0.80;0.80;;;27.20;61.60;;;;;;6336244;22;20034;-74
2022/06/30 10:32:43;;;;;;;0.90;0.70;;;27.20;61.50;;;;;;6335881;22;20006;-73
2022/06/30 10:35:20;;;;;;;1.85;0.75;;;27.20;61.50;;;;;;6335977;22;20369;-73
2022/06/30 10:38:05;;;;;;;0.95;0.70;;;27.30;61.50;;;;;;6308291;22;20053;-73
2022/06/30 10:40:52;;;;;;;0.75;0.75;;;27.30;61.30;;;;;;6336332;22;20018;-73
2022/06/30 10:43:19;;;;;;;0.65;0.65;;;27.40;61.20;;;;;;6308255;22;20007;-73
2022/06/30 10:46:00;;;;;;;0.85;0.80;;;27.40;61.10;;;;;;6335910;22;20018;-73
2022/06/30 10:48:29;;;;;;;3.08;0.80;;;27.40;61.60;;;;;;6308515;22;20007;-73
2022/06/30 10:50:56;;;;;;;0.82;0.82;;;27.50;61.10;;;;;;6336001;22;20466;-73
2022/06/30 10:53:57;;;;;;;0.88;0.82;;;27.40;61.00;;;;;;6336351;22;19998;-73
2022/06/30 10:56:45;;;;;;;0.98;0.88;;;27.50;61.10;;;;;;6290350;22;20074;-73
2022/06/30 10:59:13;;;;;;;0.60;0.60;;;27.50;61.10;;;;;;6335573;22;20014;-73
2022/06/30 11:02:18;;;;;;;1.67;0.93;;;27.60;61.00;;;;;;6281111;22;20009;-73
2022/06/30 11:04:48;;;;;;;0.65;0.60;;;27.60;61.00;;;;;;6312669;22;20006;-73
2022/06/30 11:07:21;;;;;;;1.73;0.80;;;27.40;61.10;;;;;;6335596;22;20029;-73
2022/06/30 11:10:01;;;;;;;1.33;0.75;;;27.40;61.40;;;;;;6307985;22;20042;-73
2022/06/30 11:12:51;;;;;;;1.00;0.77;;;27.30;61.40;;;;;;6336206;22;20326;-74
2022/06/30 11:15:17;;;;;;;2.75;0.85;;;27.40;62.10;;;;;;6313951;22;20041;-73
2022/06/30 11:17:42;;;;;;;0.60;0.60;;;27.30;61.40;;;;;;6336528;22;20044;-73
2022/06/30 11:20:12;;;;;;;1.42;0.80;;;27.30;61.40;;;;;;6308386;22;20026;-73
2022/06/30 11:22:39;;;;;;;0.98;0.90;;;27.40;61.30;;;;;;6335768;22;20003;-73
2022/06/30 11:25:09;;;;;;;1.30;0.70;;;27.40;61.10;;;;;;6335537;22;20052;-74
2022/06/30 11:27:36;;;;;;;1.87;1.20;;;27.40;61.10;;;;;;6335573;22;20090;-72
2022/06/30 11:30:05;;;;;;;1.40;0.80;;;27.50;60.80;;;;;;6335570;22;20003;-72
2022/06/30 11:32:31;;;;;;;0.60;0.60;;;27.50;60.80;;;;;;6306603;22;20010;-72
2022/06/30 11:34:58;;;;;;;0.75;0.63;;;27.50;60.90;;;;;;6336215;22;20030;-73
2022/06/30 11:37:26;;;;;;;7.85;0.93;;;27.50;60.80;;;;;;6335529;22;20002;-73
2022/06/30 11:40:05;;;;;;;1.05;0.80;;;27.50;60.70;;;;;;6307909;22;20056;-73
2022/06/30 11:42:31;;;;;;;0.80;0.70;;;27.60;60.60;;;;;;6332217;22;20011;-72
2022/06/30 11:44:58;;;;;;;0.60;0.60;;;27.60;60.50;;;;;;6336176;22;20038;-73
2022/06/30 11:47:28;;;;;;;1.00;0.70;;;27.70;60.60;;;;;;6335611;22;20431;-73
2022/06/30 11:49:57;;;;;;;0.60;0.60;;;27.70;60.40;;;;;;6335528;22;20011;-73
2022/06/30 11:52:35;;;;;;;0.80;0.80;;;27.80;60.20;;;;;;6257213;22;20011;-73
2022/06/30 11:55:05;;;;;;;0.55;0.50;;;27.90;60.10;;;;;;6336079;22;20003;-73
2022/06/30 11:57:33;;;;;;;0.70;0.70;;;27.80;60.10;;;;;;6336894;22;19991;-73
2022/06/30 12:00:03;;;;;;;1.02;0.60;;;27.90;60.00;;;;;;6337389;22;20434;-72
2022/06/30 12:02:30;;;;;;;1.55;0.50;;;27.90;60.00;;;;;;6284336;22;20089;-73
2022/06/30 12:04:58;;;;;;;0.55;0.50;;;27.90;60.00;;;;;;6336536;22;20492;-72
2022/06/30 12:07:25;;;;;;;1.88;0.85;;;27.90;60.00;;;;;;6336616;22;20015;-73
2022/06/30 12:09:52;;;;;;;0.73;0.50;;;27.90;60.00;;;;;;6337238;22;20014;-73
2022/06/30 12:12:23;;;;;;;0.90;0.80;;;28.00;60.00;;;;;;6308916;22;20438;-73
2022/06/30 12:14:54;;;;;;;0.70;0.70;;;28.00;60.00;;;;;;6309166;22;20295;-73
2022/06/30 12:17:20;;;;;;;0.40;0.40;;;28.10;60.00;;;;;;6336728;22;20010;-73
2022/06/30 12:19:47;;;;;;;0.68;0.63;;;28.10;60.00;;;;;;6309198;22;20002;-73
2022/06/30 12:22:13;;;;;;;1.00;0.60;;;28.10;59.90;;;;;;6336781;22;20098;-72
2022/06/30 12:24:41;;;;;;;0.60;0.60;;;28.10;59.80;;;;;;6337437;22;20015;-73
2022/06/30 12:27:07;;;;;;;1.15;0.60;;;28.10;60.00;;;;;;6308877;22;20009;-73
2022/06/30 12:29:33;;;;;;;0.40;0.40;;;28.20;60.00;;;;;;6283201;22;20052;-72
2022/06/30 12:32:10;;;;;;;0.60;0.60;;;28.10;59.90;;;;;;6337331;22;20092;-73
2022/06/30 12:34:58;;;;;;;1.13;0.70;;;28.20;59.80;;;;;;6336737;22;20007;-72
2022/06/30 12:37:36;;;;;;;1.23;0.70;;;28.20;59.50;;;;;;6282446;22;20037;-73
2022/06/30 12:40:06;;;;;;;1.00;0.70;;;28.20;59.50;;;;;;6309388;22;20007;-73
2022/06/30 12:42:40;;;;;;;;;;;28.10;59.60;;;;;;6337478;22;20003;-73
2022/06/30 12:45:06;;;;;;;0.40;0.40;;;28.10;59.60;;;;;;6336097;22;19991;-75
2022/06/30 12:47:32;;;;;;;0.50;0.50;;;28.10;59.80;;;;;;6309001;22;19995;-73
2022/06/30 12:50:19;;;;;;;1.38;0.60;;;28.00;59.80;;;;;;6336727;22;20466;-72
2022/06/30 12:52:45;;;;;;;0.60;0.60;;;27.90;59.80;;;;;;6336263;22;20005;-73
2022/06/30 12:55:11;;;;;;;1.73;0.60;;;27.90;60.60;;;;;;6308955;22;20007;-73
2022/06/30 12:57:36;;;;;;;0.65;0.60;;;27.90;60.00;;;;;;6337075;22;20002;-73
2022/06/30 13:00:03;;;;;;;0.50;0.50;;;27.90;59.80;;;;;;6309170;22;20002;-72
2022/06/30 13:02:39;;;;;;;1.42;0.50;;;28.10;59.80;;;;;;6308812;22;20037;-71
2022/06/30 13:05:11;;;;;;;0.65;0.60;;;28.10;59.50;;;;;;6336706;22;20005;-73
2022/06/30 13:07:37;;;;;;;0.73;0.70;;;28.10;59.30;;;;;;6336179;22;20003;-74
2022/06/30 13:10:04;;;;;;;0.60;0.60;;;28.00;59.20;;;;;;6308956;22;20014;-74